sensor_id;sensor_type;location;lat;lon;timestamp;pressure;altitude;pressure_sealevel;temperature
37536;BMP180;23379;51.554;6.736;2023-09-18T00:01:38;100187.00;;;19.90
37536;BMP180;23379;51.554;6.736;2023-09-18T00:04:06;100177.00;;;20.00
37536;BMP180;23379;51.554;6.736;2023-09-18T00:06:32;100181.00;;;19.60
37536;BMP180;23379;51.554;6.736;2023-09-18T00:08:57;100179.00;;;19.70
37536;BMP180;23379;51.554;6.736;2023-09-18T00:11:23;100177.00;;;20.00
37536;BMP180;23379;51.554;6.736;2023-09-18T00:13:48;100171.00;;;20.00
37536;BMP180;23379;51.554;6.736;2023-09-18T00:16:13;100177.00;;;20.00
37536;BMP180;23379;51.554;6.736;2023-09-18T00:18:38;100169.00;;;19.90
37536;BMP180;23379;51.554;6.736;2023-09-18T00:21:04;100166.00;;;20.00
37536;BMP180;23379;51.554;6.736;2023-09-18T00:23:29;100169.00;;;20.00
37536;BMP180;23379;51.554;6.736;2023-09-18T00:25:55;100160.00;;;20.10
37536;BMP180;23379;51.554;6.736;2023-09-18T00:28:20;100154.00;;;20.00
37536;BMP180;23379;51.554;6.736;2023-09-18T00:30:49;100153.00;;;20.10
37536;BMP180;23379;51.554;6.736;2023-09-18T00:33:14;100149.00;;;20.20
37536;BMP180;23379;51.554;6.736;2023-09-18T00:35:40;100135.00;;;20.00
37536;BMP180;23379;51.554;6.736;2023-09-18T00:38:05;100135.00;;;20.20
37536;BMP180;23379;51.554;6.736;2023-09-18T00:40:32;100122.00;;;20.30
37536;BMP180;23379;51.554;6.736;2023-09-18T00:42:57;100128.00;;;20.30
37536;BMP180;23379;51.554;6.736;2023-09-18T00:45:23;100120.00;;;20.40
37536;BMP180;23379;51.554;6.736;2023-09-18T00:47:48;100122.00;;;20.60
37536;BMP180;23379;51.554;6.736;2023-09-18T00:50:14;100110.00;;;20.50
37536;BMP180;23379;51.554;6.736;2023-09-18T00:52:39;100113.00;;;20.60
37536;BMP180;23379;51.554;6.736;2023-09-18T00:55:05;100110.00;;;20.60
37536;BMP180;23379;51.554;6.736;2023-09-18T00:57:31;100099.00;;;20.60
37536;BMP180;23379;51.554;6.736;2023-09-18T00:59:56;100095.00;;;20.60
37536;BMP180;23379;51.554;6.736;2023-09-18T01:02:22;100102.00;;;20.60
37536;BMP180;23379;51.554;6.736;2023-09-18T01:04:47;100096.00;;;20.70
37536;BMP180;23379;51.554;6.736;2023-09-18T01:07:13;100090.00;;;20.60
37536;BMP180;23379;51.554;6.736;2023-09-18T01:09:38;100082.00;;;20.70
37536;BMP180;23379;51.554;6.736;2023-09-18T01:14:37;100073.00;;;20.30
37536;BMP180;23379;51.554;6.736;2023-09-18T01:17:06;100068.00;;;20.00
37536;BMP180;23379;51.554;6.736;2023-09-18T01:22:02;100069.00;;;20.40
37536;BMP180;23379;51.554;6.736;2023-09-18T01:24:27;100075.00;;;20.30
37536;BMP180;23379;51.554;6.736;2023-09-18T01:26:52;100069.00;;;20.30
37536;BMP180;23379;51.554;6.736;2023-09-18T01:29:18;100075.00;;;20.30
37536;BMP180;23379;51.554;6.736;2023-09-18T01:31:44;100067.00;;;20.30
37536;BMP180;23379;51.554;6.736;2023-09-18T01:34:12;100077.00;;;20.60
37536;BMP180;23379;51.554;6.736;2023-09-18T01:36:37;100067.00;;;20.60
37536;BMP180;23379;51.554;6.736;2023-09-18T01:39:03;100068.00;;;20.70
37536;BMP180;23379;51.554;6.736;2023-09-18T01:41:28;100055.00;;;20.50
37536;BMP180;23379;51.554;6.736;2023-09-18T01:43:54;100058.00;;;20.60
37536;BMP180;23379;51.554;6.736;2023-09-18T01:46:20;100057.00;;;20.60
37536;BMP180;23379;51.554;6.736;2023-09-18T01:48:46;100048.00;;;20.70
37536;BMP180;23379;51.554;6.736;2023-09-18T01:51:15;100052.00;;;20.60
37536;BMP180;23379;51.554;6.736;2023-09-18T01:53:41;100035.00;;;20.50
37536;BMP180;23379;51.554;6.736;2023-09-18T01:56:06;100038.00;;;20.50
37536;BMP180;23379;51.554;6.736;2023-09-18T01:58:32;100037.00;;;20.30
37536;BMP180;23379;51.554;6.736;2023-09-18T02:01:00;100028.00;;;20.30
37536;BMP180;23379;51.554;6.736;2023-09-18T02:03:25;100039.00;;;20.50
37536;BMP180;23379;51.554;6.736;2023-09-18T02:05:50;100038.00;;;20.50
37536;BMP180;23379;51.554;6.736;2023-09-18T02:08:16;100029.00;;;20.40
37536;BMP180;23379;51.554;6.736;2023-09-18T02:10:41;100028.00;;;20.50
37536;BMP180;23379;51.554;6.736;2023-09-18T02:13:06;100027.00;;;20.80
37536;BMP180;23379;51.554;6.736;2023-09-18T02:15:31;100029.00;;;20.90
37536;BMP180;23379;51.554;6.736;2023-09-18T02:17:57;100029.00;;;20.90
37536;BMP180;23379;51.554;6.736;2023-09-18T02:20:22;100019.00;;;20.90
37536;BMP180;23379;51.554;6.736;2023-09-18T02:22:48;100020.00;;;20.90
37536;BMP180;23379;51.554;6.736;2023-09-18T02:25:13;100013.00;;;20.80
37536;BMP180;23379;51.554;6.736;2023-09-18T02:27:39;100014.00;;;20.90
37536;BMP180;23379;51.554;6.736;2023-09-18T02:30:04;100003.00;;;20.70
37536;BMP180;23379;51.554;6.736;2023-09-18T02:32:29;100006.00;;;20.80
37536;BMP180;23379;51.554;6.736;2023-09-18T02:34:55;99994.00;;;20.90
37536;BMP180;23379;51.554;6.736;2023-09-18T02:37:20;99997.00;;;20.90
37536;BMP180;23379;51.554;6.736;2023-09-18T02:39:45;99975.00;;;20.50
37536;BMP180;23379;51.554;6.736;2023-09-18T02:45:11;99960.00;;;20.80
37536;BMP180;23379;51.554;6.736;2023-09-18T02:47:36;99956.00;;;21.00
37536;BMP180;23379;51.554;6.736;2023-09-18T02:50:03;99951.00;;;20.90
37536;BMP180;23379;51.554;6.736;2023-09-18T02:52:29;99949.00;;;21.00
37536;BMP180;23379;51.554;6.736;2023-09-18T02:54:54;99938.00;;;20.90
37536;BMP180;23379;51.554;6.736;2023-09-18T02:57:19;99934.00;;;20.80
37536;BMP180;23379;51.554;6.736;2023-09-18T02:59:45;99920.00;;;20.70
37536;BMP180;23379;51.554;6.736;2023-09-18T03:02:10;99924.00;;;20.80
37536;BMP180;23379;51.554;6.736;2023-09-18T03:04:36;99909.00;;;20.80
37536;BMP180;23379;51.554;6.736;2023-09-18T03:07:01;99919.00;;;20.80
37536;BMP180;23379;51.554;6.736;2023-09-18T03:09:26;99930.00;;;20.10
37536;BMP180;23379;51.554;6.736;2023-09-18T03:11:51;99915.00;;;20.60
37536;BMP180;23379;51.554;6.736;2023-09-18T03:14:17;99910.00;;;20.50
37536;BMP180;23379;51.554;6.736;2023-09-18T03:16:42;99910.00;;;20.60
37536;BMP180;23379;51.554;6.736;2023-09-18T03:19:07;99909.00;;;20.40
37536;BMP180;23379;51.554;6.736;2023-09-18T03:21:32;99893.00;;;20.60
37536;BMP180;23379;51.554;6.736;2023-09-18T03:24:00;99889.00;;;20.50
37536;BMP180;23379;51.554;6.736;2023-09-18T03:26:25;99892.00;;;20.50
37536;BMP180;23379;51.554;6.736;2023-09-18T03:28:51;99882.00;;;20.50
37536;BMP180;23379;51.554;6.736;2023-09-18T03:31:16;99872.00;;;20.50
37536;BMP180;23379;51.554;6.736;2023-09-18T03:33:41;99871.00;;;20.60
37536;BMP180;23379;51.554;6.736;2023-09-18T03:36:06;99872.00;;;20.50
37536;BMP180;23379;51.554;6.736;2023-09-18T03:38:33;99866.00;;;20.70
37536;BMP180;23379;51.554;6.736;2023-09-18T03:41:00;99860.00;;;20.70
37536;BMP180;23379;51.554;6.736;2023-09-18T03:43:26;99857.00;;;20.70
37536;BMP180;23379;51.554;6.736;2023-09-18T03:45:51;99843.00;;;20.80
37536;BMP180;23379;51.554;6.736;2023-09-18T03:48:16;99842.00;;;20.80
37536;BMP180;23379;51.554;6.736;2023-09-18T03:50:42;99856.00;;;20.80
37536;BMP180;23379;51.554;6.736;2023-09-18T03:53:07;99859.00;;;20.80
37536;BMP180;23379;51.554;6.736;2023-09-18T03:55:32;99851.00;;;21.00
37536;BMP180;23379;51.554;6.736;2023-09-18T03:57:58;99838.00;;;21.10
37536;BMP180;23379;51.554;6.736;2023-09-18T04:00:23;99847.00;;;21.20
37536;BMP180;23379;51.554;6.736;2023-09-18T04:02:48;99835.00;;;21.30
37536;BMP180;23379;51.554;6.736;2023-09-18T04:05:13;99831.00;;;21.40
37536;BMP180;23379;51.554;6.736;2023-09-18T04:07:39;99820.00;;;21.50
37536;BMP180;23379;51.554;6.736;2023-09-18T04:10:04;99829.00;;;21.50
37536;BMP180;23379;51.554;6.736;2023-09-18T04:12:30;99819.00;;;21.50
37536;BMP180;23379;51.554;6.736;2023-09-18T04:14:56;99811.00;;;21.60
37536;BMP180;23379;51.554;6.736;2023-09-18T04:17:22;99804.00;;;21.70
37536;BMP180;23379;51.554;6.736;2023-09-18T04:19:47;99795.00;;;21.80
37536;BMP180;23379;51.554;6.736;2023-09-18T04:22:13;99806.00;;;21.80
37536;BMP180;23379;51.554;6.736;2023-09-18T04:24:38;99829.00;;;21.80
37536;BMP180;23379;51.554;6.736;2023-09-18T04:27:04;99842.00;;;21.80
37536;BMP180;23379;51.554;6.736;2023-09-18T04:29:29;99859.00;;;21.70
37536;BMP180;23379;51.554;6.736;2023-09-18T04:31:54;99859.00;;;21.60
37536;BMP180;23379;51.554;6.736;2023-09-18T04:34:20;99868.00;;;21.40
37536;BMP180;23379;51.554;6.736;2023-09-18T04:36:45;99884.00;;;21.50
37536;BMP180;23379;51.554;6.736;2023-09-18T04:39:14;99882.00;;;21.50
37536;BMP180;23379;51.554;6.736;2023-09-18T04:41:39;99872.00;;;21.40
37536;BMP180;23379;51.554;6.736;2023-09-18T04:44:04;99872.00;;;21.30
37536;BMP180;23379;51.554;6.736;2023-09-18T04:46:30;99881.00;;;21.20
37536;BMP180;23379;51.554;6.736;2023-09-18T04:48:55;99885.00;;;21.20
37536;BMP180;23379;51.554;6.736;2023-09-18T04:51:20;99855.00;;;21.10
37536;BMP180;23379;51.554;6.736;2023-09-18T04:53:46;99872.00;;;21.00
37536;BMP180;23379;51.554;6.736;2023-09-18T04:56:11;99846.00;;;21.10
37536;BMP180;23379;51.554;6.736;2023-09-18T04:58:37;99858.00;;;21.40
37536;BMP180;23379;51.554;6.736;2023-09-18T05:01:02;99868.00;;;21.20
37536;BMP180;23379;51.554;6.736;2023-09-18T05:03:30;99864.00;;;21.10
37536;BMP180;23379;51.554;6.736;2023-09-18T05:05:56;99871.00;;;21.20
37536;BMP180;23379;51.554;6.736;2023-09-18T05:08:21;99869.00;;;21.10
37536;BMP180;23379;51.554;6.736;2023-09-18T05:10:47;99881.00;;;21.20
37536;BMP180;23379;51.554;6.736;2023-09-18T05:13:12;99875.00;;;21.30
37536;BMP180;23379;51.554;6.736;2023-09-18T05:15:38;99882.00;;;21.50
37536;BMP180;23379;51.554;6.736;2023-09-18T05:18:03;99879.00;;;21.40
37536;BMP180;23379;51.554;6.736;2023-09-18T05:20:29;99866.00;;;21.40
37536;BMP180;23379;51.554;6.736;2023-09-18T05:22:55;99854.00;;;21.40
37536;BMP180;23379;51.554;6.736;2023-09-18T05:25:22;99865.00;;;21.30
37536;BMP180;23379;51.554;6.736;2023-09-18T05:27:51;99858.00;;;21.20
37536;BMP180;23379;51.554;6.736;2023-09-18T05:30:24;99850.00;;;21.30
37536;BMP180;23379;51.554;6.736;2023-09-18T05:32:53;99859.00;;;21.20
37536;BMP180;23379;51.554;6.736;2023-09-18T05:35:20;99877.00;;;21.20
37536;BMP180;23379;51.554;6.736;2023-09-18T05:37:46;99895.00;;;21.30
37536;BMP180;23379;51.554;6.736;2023-09-18T05:40:14;99898.00;;;21.20
37536;BMP180;23379;51.554;6.736;2023-09-18T05:42:40;99888.00;;;21.20
37536;BMP180;23379;51.554;6.736;2023-09-18T05:45:08;99875.00;;;21.30
37536;BMP180;23379;51.554;6.736;2023-09-18T05:47:34;99866.00;;;21.30
37536;BMP180;23379;51.554;6.736;2023-09-18T05:50:01;99873.00;;;21.40
37536;BMP180;23379;51.554;6.736;2023-09-18T05:52:27;99874.00;;;21.50
37536;BMP180;23379;51.554;6.736;2023-09-18T05:54:52;99872.00;;;21.60
37536;BMP180;23379;51.554;6.736;2023-09-18T05:57:17;99871.00;;;21.40
37536;BMP180;23379;51.554;6.736;2023-09-18T05:59:42;99884.00;;;21.50
37536;BMP180;23379;51.554;6.736;2023-09-18T06:02:10;99904.00;;;21.40
37536;BMP180;23379;51.554;6.736;2023-09-18T06:04:35;99906.00;;;21.40
37536;BMP180;23379;51.554;6.736;2023-09-18T06:07:02;99914.00;;;21.40
37536;BMP180;23379;51.554;6.736;2023-09-18T06:09:28;99913.00;;;21.60
37536;BMP180;23379;51.554;6.736;2023-09-18T06:11:53;99898.00;;;21.60
37536;BMP180;23379;51.554;6.736;2023-09-18T06:14:18;99902.00;;;21.40
37536;BMP180;23379;51.554;6.736;2023-09-18T06:16:44;99895.00;;;21.30
37536;BMP180;23379;51.554;6.736;2023-09-18T06:19:09;99897.00;;;21.40
37536;BMP180;23379;51.554;6.736;2023-09-18T06:21:34;99892.00;;;21.40
37536;BMP180;23379;51.554;6.736;2023-09-18T06:23:59;99887.00;;;21.40
37536;BMP180;23379;51.554;6.736;2023-09-18T06:26:25;99899.00;;;21.50
37536;BMP180;23379;51.554;6.736;2023-09-18T06:28:50;99886.00;;;21.40
37536;BMP180;23379;51.554;6.736;2023-09-18T06:31:17;99904.00;;;21.40
37536;BMP180;23379;51.554;6.736;2023-09-18T06:33:43;99906.00;;;21.30
37536;BMP180;23379;51.554;6.736;2023-09-18T06:36:09;99905.00;;;21.30
37536;BMP180;23379;51.554;6.736;2023-09-18T06:38:34;99916.00;;;21.30
37536;BMP180;23379;51.554;6.736;2023-09-18T06:40:59;99911.00;;;21.10
37536;BMP180;23379;51.554;6.736;2023-09-18T06:43:25;99908.00;;;21.40
37536;BMP180;23379;51.554;6.736;2023-09-18T06:45:50;99901.00;;;21.30
37536;BMP180;23379;51.554;6.736;2023-09-18T06:48:15;99907.00;;;21.50
37536;BMP180;23379;51.554;6.736;2023-09-18T06:50:42;99929.00;;;21.30
37536;BMP180;23379;51.554;6.736;2023-09-18T06:53:07;99935.00;;;21.30
37536;BMP180;23379;51.554;6.736;2023-09-18T06:55:33;99927.00;;;21.30
37536;BMP180;23379;51.554;6.736;2023-09-18T06:57:58;99924.00;;;21.20
37536;BMP180;23379;51.554;6.736;2023-09-18T07:00:23;99932.00;;;21.30
37536;BMP180;23379;51.554;6.736;2023-09-18T07:02:48;99923.00;;;21.50
37536;BMP180;23379;51.554;6.736;2023-09-18T07:05:14;99942.00;;;21.50
37536;BMP180;23379;51.554;6.736;2023-09-18T07:07:39;99941.00;;;21.60
37536;BMP180;23379;51.554;6.736;2023-09-18T07:10:05;99938.00;;;21.90
37536;BMP180;23379;51.554;6.736;2023-09-18T07:12:32;99943.00;;;21.80
37536;BMP180;23379;51.554;6.736;2023-09-18T07:15:01;99954.00;;;22.00
37536;BMP180;23379;51.554;6.736;2023-09-18T07:17:30;99960.00;;;21.60
37536;BMP180;23379;51.554;6.736;2023-09-18T07:19:55;99953.00;;;21.80
37536;BMP180;23379;51.554;6.736;2023-09-18T07:22:21;99953.00;;;21.40
37536;BMP180;23379;51.554;6.736;2023-09-18T07:24:49;99943.00;;;21.60
37536;BMP180;23379;51.554;6.736;2023-09-18T07:27:14;99950.00;;;21.50
37536;BMP180;23379;51.554;6.736;2023-09-18T07:29:40;99949.00;;;21.50
37536;BMP180;23379;51.554;6.736;2023-09-18T07:32:05;99953.00;;;21.50
37536;BMP180;23379;51.554;6.736;2023-09-18T07:34:30;99961.00;;;21.60
37536;BMP180;23379;51.554;6.736;2023-09-18T07:36:55;99956.00;;;21.70
37536;BMP180;23379;51.554;6.736;2023-09-18T07:39:21;99971.00;;;21.60
37536;BMP180;23379;51.554;6.736;2023-09-18T07:41:46;99986.00;;;21.40
37536;BMP180;23379;51.554;6.736;2023-09-18T07:44:16;99973.00;;;21.30
37536;BMP180;23379;51.554;6.736;2023-09-18T07:46:43;99970.00;;;21.30
37536;BMP180;23379;51.554;6.736;2023-09-18T07:49:08;99973.00;;;21.40
37536;BMP180;23379;51.554;6.736;2023-09-18T07:51:37;99970.00;;;21.50
37536;BMP180;23379;51.554;6.736;2023-09-18T07:54:02;99973.00;;;21.60
37536;BMP180;23379;51.554;6.736;2023-09-18T07:56:28;99978.00;;;21.30
37536;BMP180;23379;51.554;6.736;2023-09-18T07:58:53;99972.00;;;21.20
37536;BMP180;23379;51.554;6.736;2023-09-18T08:01:18;99986.00;;;21.20
37536;BMP180;23379;51.554;6.736;2023-09-18T08:03:47;99982.00;;;21.50
37536;BMP180;23379;51.554;6.736;2023-09-18T08:06:12;99979.00;;;21.30
37536;BMP180;23379;51.554;6.736;2023-09-18T08:08:39;99984.00;;;21.50
37536;BMP180;23379;51.554;6.736;2023-09-18T08:11:08;99997.00;;;21.70
37536;BMP180;23379;51.554;6.736;2023-09-18T08:13:34;99994.00;;;21.60
37536;BMP180;23379;51.554;6.736;2023-09-18T08:15:59;99970.00;;;21.60
37536;BMP180;23379;51.554;6.736;2023-09-18T08:18:24;99987.00;;;21.50
37536;BMP180;23379;51.554;6.736;2023-09-18T08:20:51;99998.00;;;21.50
37536;BMP180;23379;51.554;6.736;2023-09-18T08:23:17;99981.00;;;21.60
37536;BMP180;23379;51.554;6.736;2023-09-18T08:25:42;99979.00;;;21.70
37536;BMP180;23379;51.554;6.736;2023-09-18T08:28:07;99992.00;;;21.40
37536;BMP180;23379;51.554;6.736;2023-09-18T08:30:33;100009.00;;;22.10
37536;BMP180;23379;51.554;6.736;2023-09-18T08:33:04;100021.00;;;22.00
37536;BMP180;23379;51.554;6.736;2023-09-18T08:35:30;100008.00;;;22.00
37536;BMP180;23379;51.554;6.736;2023-09-18T08:37:56;100012.00;;;21.90
37536;BMP180;23379;51.554;6.736;2023-09-18T08:40:22;100015.00;;;22.40
37536;BMP180;23379;51.554;6.736;2023-09-18T08:42:47;100022.00;;;22.40
37536;BMP180;23379;51.554;6.736;2023-09-18T08:45:23;100016.00;;;22.40
37536;BMP180;23379;51.554;6.736;2023-09-18T08:47:49;100020.00;;;22.40
37536;BMP180;23379;51.554;6.736;2023-09-18T08:50:18;100013.00;;;22.00
37536;BMP180;23379;51.554;6.736;2023-09-18T08:52:45;100005.00;;;22.30
37536;BMP180;23379;51.554;6.736;2023-09-18T08:55:10;100010.00;;;21.90
37536;BMP180;23379;51.554;6.736;2023-09-18T08:57:35;100016.00;;;21.70
37536;BMP180;23379;51.554;6.736;2023-09-18T09:00:04;100014.00;;;21.90
37536;BMP180;23379;51.554;6.736;2023-09-18T09:02:36;100020.00;;;21.80
37536;BMP180;23379;51.554;6.736;2023-09-18T09:05:02;100015.00;;;22.30
37536;BMP180;23379;51.554;6.736;2023-09-18T09:07:27;100025.00;;;22.60
37536;BMP180;23379;51.554;6.736;2023-09-18T09:09:55;100034.00;;;22.30
37536;BMP180;23379;51.554;6.736;2023-09-18T09:15:05;100027.00;;;21.70
37536;BMP180;23379;51.554;6.736;2023-09-18T09:17:30;100021.00;;;21.90
37536;BMP180;23379;51.554;6.736;2023-09-18T09:20:07;100023.00;;;22.20
37536;BMP180;23379;51.554;6.736;2023-09-18T09:22:32;100021.00;;;22.50
37536;BMP180;23379;51.554;6.736;2023-09-18T09:24:59;100023.00;;;22.90
37536;BMP180;23379;51.554;6.736;2023-09-18T09:27:24;100013.00;;;23.60
37536;BMP180;23379;51.554;6.736;2023-09-18T09:33:04;100012.00;;;23.50
37536;BMP180;23379;51.554;6.736;2023-09-18T09:35:34;100007.00;;;23.20
37536;BMP180;23379;51.554;6.736;2023-09-18T09:38:01;100006.00;;;23.30
37536;BMP180;23379;51.554;6.736;2023-09-18T09:40:27;100008.00;;;23.20
37536;BMP180;23379;51.554;6.736;2023-09-18T09:42:54;100010.00;;;24.00
37536;BMP180;23379;51.554;6.736;2023-09-18T09:45:25;100019.00;;;24.10
37536;BMP180;23379;51.554;6.736;2023-09-18T09:47:52;100022.00;;;24.30
37536;BMP180;23379;51.554;6.736;2023-09-18T09:50:19;100028.00;;;24.60
37536;BMP180;23379;51.554;6.736;2023-09-18T09:52:48;100034.00;;;25.00
37536;BMP180;23379;51.554;6.736;2023-09-18T09:57:46;100047.00;;;23.50
37536;BMP180;23379;51.554;6.736;2023-09-18T10:00:13;100031.00;;;23.20
37536;BMP180;23379;51.554;6.736;2023-09-18T10:02:47;100046.00;;;23.30
37536;BMP180;23379;51.554;6.736;2023-09-18T10:05:13;100037.00;;;23.50
37536;BMP180;23379;51.554;6.736;2023-09-18T10:07:40;100034.00;;;25.00
37536;BMP180;23379;51.554;6.736;2023-09-18T10:10:08;100041.00;;;24.60
37536;BMP180;23379;51.554;6.736;2023-09-18T10:12:37;100027.00;;;24.50
37536;BMP180;23379;51.554;6.736;2023-09-18T10:15:04;100036.00;;;24.40
37536;BMP180;23379;51.554;6.736;2023-09-18T10:17:30;100042.00;;;24.80
37536;BMP180;23379;51.554;6.736;2023-09-18T10:20:07;100039.00;;;25.60
37536;BMP180;23379;51.554;6.736;2023-09-18T10:22:37;100037.00;;;25.50
37536;BMP180;23379;51.554;6.736;2023-09-18T10:25:07;100048.00;;;25.80
37536;BMP180;23379;51.554;6.736;2023-09-18T10:27:38;100027.00;;;26.90
37536;BMP180;23379;51.554;6.736;2023-09-18T10:30:06;100044.00;;;28.90
37536;BMP180;23379;51.554;6.736;2023-09-18T10:32:37;100037.00;;;28.00
37536;BMP180;23379;51.554;6.736;2023-09-18T10:35:03;100032.00;;;28.70
37536;BMP180;23379;51.554;6.736;2023-09-18T10:37:29;100028.00;;;29.30
37536;BMP180;23379;51.554;6.736;2023-09-18T10:39:55;100032.00;;;29.60
37536;BMP180;23379;51.554;6.736;2023-09-18T10:42:23;100026.00;;;29.30
37536;BMP180;23379;51.554;6.736;2023-09-18T10:44:49;100032.00;;;28.80
37536;BMP180;23379;51.554;6.736;2023-09-18T10:47:15;100037.00;;;28.60
37536;BMP180;23379;51.554;6.736;2023-09-18T10:49:41;100048.00;;;29.40
37536;BMP180;23379;51.554;6.736;2023-09-18T10:52:10;100039.00;;;29.20
37536;BMP180;23379;51.554;6.736;2023-09-18T10:54:36;100038.00;;;28.00
37536;BMP180;23379;51.554;6.736;2023-09-18T10:57:05;100033.00;;;28.00
37536;BMP180;23379;51.554;6.736;2023-09-18T10:59:30;100034.00;;;28.10
37536;BMP180;23379;51.554;6.736;2023-09-18T11:01:56;100030.00;;;28.00
37536;BMP180;23379;51.554;6.736;2023-09-18T11:04:26;100021.00;;;27.10
37536;BMP180;23379;51.554;6.736;2023-09-18T11:09:27;100034.00;;;26.60
37536;BMP180;23379;51.554;6.736;2023-09-18T11:14:22;100037.00;;;27.50
37536;BMP180;23379;51.554;6.736;2023-09-18T11:16:48;100038.00;;;29.10
37536;BMP180;23379;51.554;6.736;2023-09-18T11:19:17;100038.00;;;29.90
37536;BMP180;23379;51.554;6.736;2023-09-18T11:21:44;100048.00;;;30.20
37536;BMP180;23379;51.554;6.736;2023-09-18T11:26:43;100048.00;;;27.70
37536;BMP180;23379;51.554;6.736;2023-09-18T11:29:10;100051.00;;;27.50
37536;BMP180;23379;51.554;6.736;2023-09-18T11:31:55;100054.00;;;26.50
37536;BMP180;23379;51.554;6.736;2023-09-18T11:34:24;100050.00;;;26.00
37536;BMP180;23379;51.554;6.736;2023-09-18T11:36:53;100040.00;;;25.80
37536;BMP180;23379;51.554;6.736;2023-09-18T11:39:37;100040.00;;;26.60
37536;BMP180;23379;51.554;6.736;2023-09-18T11:42:06;100038.00;;;26.00
37536;BMP180;23379;51.554;6.736;2023-09-18T11:44:36;100041.00;;;25.60
37536;BMP180;23379;51.554;6.736;2023-09-18T11:47:06;100039.00;;;26.70
37536;BMP180;23379;51.554;6.736;2023-09-18T11:49:32;100024.00;;;27.40
37536;BMP180;23379;51.554;6.736;2023-09-18T11:51:58;100037.00;;;29.40
37536;BMP180;23379;51.554;6.736;2023-09-18T11:54:23;100029.00;;;30.00
37536;BMP180;23379;51.554;6.736;2023-09-18T11:56:49;100016.00;;;30.60
37536;BMP180;23379;51.554;6.736;2023-09-18T11:59:14;100026.00;;;30.00
37536;BMP180;23379;51.554;6.736;2023-09-18T12:01:40;100033.00;;;31.50
37536;BMP180;23379;51.554;6.736;2023-09-18T12:04:11;100032.00;;;31.40
37536;BMP180;23379;51.554;6.736;2023-09-18T12:06:40;100031.00;;;31.10
37536;BMP180;23379;51.554;6.736;2023-09-18T12:09:06;100039.00;;;31.90
37536;BMP180;23379;51.554;6.736;2023-09-18T12:11:35;100032.00;;;30.20
37536;BMP180;23379;51.554;6.736;2023-09-18T12:14:01;100020.00;;;30.50
37536;BMP180;23379;51.554;6.736;2023-09-18T12:16:27;100025.00;;;30.00
37536;BMP180;23379;51.554;6.736;2023-09-18T12:18:55;100006.00;;;29.30
37536;BMP180;23379;51.554;6.736;2023-09-18T12:21:22;100011.00;;;30.80
37536;BMP180;23379;51.554;6.736;2023-09-18T12:23:47;100017.00;;;30.30
37536;BMP180;23379;51.554;6.736;2023-09-18T12:26:13;100010.00;;;30.70
37536;BMP180;23379;51.554;6.736;2023-09-18T12:28:40;100007.00;;;28.40
37536;BMP180;23379;51.554;6.736;2023-09-18T12:31:06;100012.00;;;28.60
37536;BMP180;23379;51.554;6.736;2023-09-18T12:33:38;99999.00;;;29.90
37536;BMP180;23379;51.554;6.736;2023-09-18T12:36:04;100003.00;;;30.60
37536;BMP180;23379;51.554;6.736;2023-09-18T12:38:30;100014.00;;;30.60
37536;BMP180;23379;51.554;6.736;2023-09-18T12:40:56;100008.00;;;30.10
37536;BMP180;23379;51.554;6.736;2023-09-18T12:43:21;100014.00;;;29.50
37536;BMP180;23379;51.554;6.736;2023-09-18T12:45:50;100001.00;;;29.80
37536;BMP180;23379;51.554;6.736;2023-09-18T12:48:16;100009.00;;;30.00
37536;BMP180;23379;51.554;6.736;2023-09-18T12:50:44;100006.00;;;31.10
37536;BMP180;23379;51.554;6.736;2023-09-18T12:53:12;100012.00;;;30.70
37536;BMP180;23379;51.554;6.736;2023-09-18T12:55:40;100010.00;;;29.50
37536;BMP180;23379;51.554;6.736;2023-09-18T12:58:10;100003.00;;;30.30
37536;BMP180;23379;51.554;6.736;2023-09-18T13:00:35;100006.00;;;30.10
37536;BMP180;23379;51.554;6.736;2023-09-18T13:03:01;100009.00;;;30.80
37536;BMP180;23379;51.554;6.736;2023-09-18T13:05:29;99997.00;;;29.30
37536;BMP180;23379;51.554;6.736;2023-09-18T13:08:00;99993.00;;;27.30
37536;BMP180;23379;51.554;6.736;2023-09-18T13:10:27;99998.00;;;27.30
37536;BMP180;23379;51.554;6.736;2023-09-18T13:12:52;100000.00;;;27.00
37536;BMP180;23379;51.554;6.736;2023-09-18T13:15:38;99996.00;;;25.90
37536;BMP180;23379;51.554;6.736;2023-09-18T13:18:10;99990.00;;;25.70
37536;BMP180;23379;51.554;6.736;2023-09-18T13:20:36;99986.00;;;25.40
37536;BMP180;23379;51.554;6.736;2023-09-18T13:23:01;99980.00;;;25.40
37536;BMP180;23379;51.554;6.736;2023-09-18T13:25:34;99979.00;;;26.40
37536;BMP180;23379;51.554;6.736;2023-09-18T13:28:00;99962.00;;;27.30
37536;BMP180;23379;51.554;6.736;2023-09-18T13:30:25;99974.00;;;28.90
37536;BMP180;23379;51.554;6.736;2023-09-18T13:33:00;99978.00;;;29.90
37536;BMP180;23379;51.554;6.736;2023-09-18T13:35:26;99977.00;;;30.90
37536;BMP180;23379;51.554;6.736;2023-09-18T13:37:51;99968.00;;;29.60
37536;BMP180;23379;51.554;6.736;2023-09-18T13:40:16;99970.00;;;30.30
37536;BMP180;23379;51.554;6.736;2023-09-18T13:42:41;99976.00;;;30.60
37536;BMP180;23379;51.554;6.736;2023-09-18T13:45:07;99971.00;;;30.70
37536;BMP180;23379;51.554;6.736;2023-09-18T13:47:33;99971.00;;;30.50
37536;BMP180;23379;51.554;6.736;2023-09-18T13:50:02;99968.00;;;30.30
37536;BMP180;23379;51.554;6.736;2023-09-18T13:52:31;99968.00;;;31.40
37536;BMP180;23379;51.554;6.736;2023-09-18T13:54:57;99953.00;;;30.60
37536;BMP180;23379;51.554;6.736;2023-09-18T13:57:22;99937.00;;;29.90
37536;BMP180;23379;51.554;6.736;2023-09-18T13:59:49;99953.00;;;29.80
37536;BMP180;23379;51.554;6.736;2023-09-18T14:02:14;99965.00;;;30.60
37536;BMP180;23379;51.554;6.736;2023-09-18T14:04:40;99948.00;;;29.30
37536;BMP180;23379;51.554;6.736;2023-09-18T14:07:08;99939.00;;;30.60
37536;BMP180;23379;51.554;6.736;2023-09-18T14:09:34;99955.00;;;30.20
37536;BMP180;23379;51.554;6.736;2023-09-18T14:12:00;99946.00;;;29.40
37536;BMP180;23379;51.554;6.736;2023-09-18T14:14:26;99950.00;;;29.30
37536;BMP180;23379;51.554;6.736;2023-09-18T14:16:51;99947.00;;;29.60
37536;BMP180;23379;51.554;6.736;2023-09-18T14:19:17;99929.00;;;28.00
37536;BMP180;23379;51.554;6.736;2023-09-18T14:21:42;99935.00;;;29.30
37536;BMP180;23379;51.554;6.736;2023-09-18T14:24:08;99920.00;;;28.30